createdAt,value
2023-05-05T00:00:29.925Z,25.73
2023-05-05T00:01:29.918Z,27.99
2023-05-05T00:02:30.023Z,30.57
2023-05-05T00:03:30.069Z,28.63
2023-05-05T00:04:30.003Z,26.19
2023-05-05T00:05:30.057Z,28.81
2023-05-05T00:06:30.049Z,28.47
2023-05-05T00:07:30.105Z,28.68
2023-05-05T00:08:30.177Z,28.16
2023-05-05T00:09:30.155Z,27.36
2023-05-05T00:10:30.160Z,29.78
2023-05-05T00:11:30.289Z,25.74
2023-05-05T00:12:30.359Z,28.26
2023-05-05T00:13:30.282Z,28.37
2023-05-05T00:14:30.324Z,29.57
2023-05-05T00:15:30.313Z,28.51
2023-05-05T00:16:30.421Z,30.41
2023-05-05T00:17:30.451Z,27.02
2023-05-05T00:18:30.418Z,28.33
2023-05-05T00:19:30.429Z,27.32
2023-05-05T00:20:30.476Z,25.00
2023-05-05T00:21:30.477Z,27.25
2023-05-05T00:22:30.540Z,26.45
2023-05-05T00:23:30.561Z,31.34
2023-05-05T00:24:30.603Z,25.24
2023-05-05T00:25:30.620Z,29.48
2023-05-05T00:26:30.643Z,30.38
2023-05-05T00:27:30.713Z,27.34
2023-05-05T00:28:30.737Z,29.47
2023-05-05T00:29:30.754Z,27.68
2023-05-05T00:30:30.791Z,30.93
2023-05-05T00:31:30.884Z,25.96
2023-05-05T00:32:30.892Z,30.04
2023-05-05T00:33:30.933Z,28.39
2023-05-05T00:34:30.944Z,28.60
2023-05-05T00:35:30.946Z,27.49
2023-05-05T00:36:30.992Z,26.90
2023-05-05T00:37:31.061Z,28.44
2023-05-05T00:38:31.074Z,28.78
2023-05-05T00:39:31.078Z,27.67
2023-05-05T00:40:31.128Z,27.79
2023-05-05T00:41:31.126Z,29.03
2023-05-05T00:42:31.438Z,29.17
2023-05-05T00:43:31.203Z,30.06
2023-05-05T00:44:31.208Z,28.17
2023-05-05T00:45:31.261Z,28.35
2023-05-05T00:46:31.338Z,27.61
2023-05-05T00:47:31.510Z,30.06
2023-05-05T00:48:31.390Z,27.91
2023-05-05T00:49:31.459Z,26.86
2023-05-05T00:50:31.447Z,27.92
2023-05-05T00:51:31.477Z,30.43
2023-05-05T00:52:31.514Z,27.52
2023-05-05T00:53:31.584Z,30.09
2023-05-05T00:54:31.588Z,29.58
2023-05-05T00:55:31.655Z,29.02
2023-05-05T00:56:31.665Z,26.99
2023-05-05T00:57:31.706Z,31.53
2023-05-05T00:58:31.765Z,30.46
2023-05-05T00:59:31.766Z,28.95
2023-05-05T01:00:31.830Z,32.70
2023-05-05T01:01:31.895Z,29.65
2023-05-05T01:02:32.011Z,30.07
2023-05-05T01:03:31.965Z,30.98
2023-05-05T01:04:32.026Z,30.00
2023-05-05T01:05:31.954Z,28.79
2023-05-05T01:06:31.968Z,29.93
2023-05-05T01:07:32.028Z,28.15
2023-05-05T01:08:32.028Z,27.75
2023-05-05T01:09:32.039Z,30.36
2023-05-05T01:10:32.067Z,27.45
2023-05-05T01:11:32.113Z,28.81
2023-05-05T01:12:32.204Z,28.86
2023-05-05T01:13:32.173Z,28.39
2023-05-05T01:14:32.235Z,30.02
2023-05-05T01:15:32.256Z,30.15
2023-05-05T01:16:32.368Z,28.98
2023-05-05T01:17:32.376Z,26.89
2023-05-05T01:18:32.373Z,27.38
2023-05-05T01:19:32.422Z,30.23
2023-05-05T01:20:32.417Z,29.67
2023-05-05T01:21:32.494Z,30.01
2023-05-05T01:22:32.538Z,29.64
2023-05-05T01:23:32.586Z,31.05
2023-05-05T01:24:32.592Z,27.49
2023-05-05T01:25:32.652Z,31.19
2023-05-05T01:26:32.644Z,27.06
2023-05-05T01:27:32.722Z,28.81
2023-05-05T01:28:32.751Z,29.08
2023-05-05T01:29:32.769Z,26.36
2023-05-05T01:30:32.816Z,30.45
2023-05-05T01:31:32.885Z,29.83
2023-05-05T01:32:32.897Z,28.79
2023-05-05T01:33:32.878Z,26.92
2023-05-05T01:34:32.915Z,29.51
2023-05-05T01:35:32.980Z,31.18
2023-05-05T01:36:33.973Z,28.79
2023-05-05T01:37:33.059Z,30.85
2023-05-05T01:38:33.078Z,29.92
2023-05-05T01:39:33.103Z,31.86
2023-05-05T01:40:33.952Z,29.96
2023-05-05T01:41:33.243Z,26.78
2023-05-05T01:42:33.234Z,27.31
2023-05-05T01:43:33.256Z,28.03
2023-05-05T01:44:33.311Z,28.13
2023-05-05T01:45:33.449Z,29.30
2023-05-05T01:46:33.367Z,30.75
2023-05-05T01:47:33.430Z,27.38
2023-05-05T01:48:33.430Z,28.01
2023-05-05T01:49:33.485Z,29.91
2023-05-05T01:50:33.505Z,31.82
2023-05-05T01:51:33.554Z,28.75
2023-05-05T01:52:33.570Z,31.42
2023-05-05T01:53:33.639Z,30.25
2023-05-05T01:54:33.686Z,31.35
2023-05-05T01:55:33.699Z,26.15
2023-05-05T01:56:33.732Z,31.68
2023-05-05T01:57:33.759Z,28.35
2023-05-05T01:58:33.777Z,28.05
2023-05-05T01:59:33.812Z,31.13
2023-05-05T02:00:33.869Z,29.43
2023-05-05T02:01:33.937Z,32.88
2023-05-05T02:02:33.964Z,30.65
2023-05-05T02:03:34.028Z,31.91
2023-05-05T02:04:34.028Z,30.57
2023-05-05T02:05:34.061Z,29.32
2023-05-05T02:06:34.104Z,30.69
2023-05-05T02:07:34.187Z,28.92
2023-05-05T02:08:34.179Z,29.06
2023-05-05T02:09:34.268Z,28.98
2023-05-05T02:10:34.305Z,26.22
2023-05-05T02:11:34.350Z,31.89
2023-05-05T02:12:34.423Z,31.25
2023-05-05T02:13:34.438Z,30.87
2023-05-05T02:14:34.502Z,28.95
2023-05-05T02:15:34.559Z,30.82
2023-05-05T02:16:34.588Z,29.59
2023-05-05T02:17:35.008Z,29.94
2023-05-05T02:18:34.665Z,30.17
2023-05-05T02:19:34.709Z,29.42
2023-05-05T02:20:34.822Z,30.30
2023-05-05T02:21:34.875Z,28.72
2023-05-05T02:22:34.884Z,28.26
2023-05-05T02:23:34.918Z,31.48
2023-05-05T02:24:34.987Z,28.46
2023-05-05T02:25:35.043Z,30.24
2023-05-05T02:26:35.073Z,27.51
2023-05-05T02:27:35.100Z,30.79
2023-05-05T02:28:35.192Z,28.80
2023-05-05T02:29:35.230Z,29.33
2023-05-05T02:30:35.295Z,28.84
2023-05-05T02:31:35.340Z,30.10
2023-05-05T02:32:35.386Z,29.17
2023-05-05T02:33:35.403Z,28.53
2023-05-05T02:34:36.000Z,30.06
2023-05-05T02:35:35.468Z,29.33
2023-05-05T02:36:35.539Z,27.81
2023-05-05T02:37:35.604Z,29.14
2023-05-05T02:38:35.623Z,29.91
2023-05-05T02:39:35.726Z,30.32
2023-05-05T02:40:35.767Z,27.21
2023-05-05T02:41:35.801Z,25.00
2023-05-05T02:42:35.968Z,29.58
2023-05-05T02:43:35.898Z,28.51
2023-05-05T02:44:35.949Z,29.22
2023-05-05T02:45:36.016Z,29.14
2023-05-05T02:46:36.145Z,27.47
2023-05-05T02:47:36.235Z,30.48
2023-05-05T02:48:36.180Z,27.90
2023-05-05T02:49:36.252Z,26.22
2023-05-05T02:50:36.259Z,27.16
2023-05-05T02:51:36.330Z,28.70
2023-05-05T02:52:36.425Z,26.61
2023-05-05T02:53:36.454Z,25.92
2023-05-05T02:54:36.497Z,31.13
2023-05-05T02:55:36.561Z,30.08
2023-05-05T02:56:36.623Z,29.60
2023-05-05T02:57:36.716Z,28.85
2023-05-05T02:58:36.765Z,29.84
2023-05-05T02:59:36.830Z,29.72
2023-05-05T03:00:36.859Z,29.33
2023-05-05T03:01:36.992Z,28.07
2023-05-05T03:02:37.000Z,28.15
2023-05-05T03:03:37.128Z,31.57
2023-05-05T03:04:37.117Z,29.22
2023-05-05T03:05:37.171Z,28.13
2023-05-05T03:06:37.231Z,31.04
2023-05-05T03:07:37.263Z,30.70
2023-05-05T03:08:37.347Z,29.56
2023-05-05T03:09:37.417Z,28.83
2023-05-05T03:10:37.506Z,30.95
2023-05-05T03:11:37.531Z,28.52
2023-05-05T03:12:37.656Z,30.32
2023-05-05T03:13:37.681Z,26.72
2023-05-05T03:14:37.709Z,27.38
2023-05-05T03:15:37.806Z,28.36
2023-05-05T03:16:37.949Z,27.78
2023-05-05T03:17:37.908Z,27.47
2023-05-05T03:18:37.957Z,31.31
2023-05-05T03:19:37.996Z,27.75
2023-05-05T03:20:38.038Z,27.80
2023-05-05T03:21:38.097Z,29.16
2023-05-05T03:22:38.173Z,29.53
2023-05-05T03:23:38.240Z,28.18
2023-05-05T03:24:38.279Z,30.51
2023-05-05T03:25:38.384Z,28.42
2023-05-05T03:26:38.445Z,28.78
2023-05-05T03:27:38.556Z,28.82
2023-05-05T03:28:38.536Z,27.57
2023-05-05T03:29:38.584Z,28.57
2023-05-05T03:30:38.657Z,26.66
2023-05-05T03:31:38.779Z,31.74
2023-05-05T03:32:38.776Z,28.20
2023-05-05T03:33:38.839Z,28.92
2023-05-05T03:34:38.894Z,27.05
2023-05-05T03:35:38.974Z,26.85
2023-05-05T03:36:39.022Z,29.63
2023-05-05T03:37:39.062Z,28.19
2023-05-05T03:38:39.143Z,26.39
2023-05-05T03:39:39.173Z,25.00
2023-05-05T03:40:44.127Z,25.88
2023-05-05T03:41:40.307Z,26.01
2023-05-05T03:42:39.518Z,26.24
2023-05-05T03:43:39.203Z,26.33
2023-05-05T03:44:39.214Z,27.39
2023-05-05T03:45:39.287Z,27.85
2023-05-05T03:46:39.194Z,27.36
2023-05-05T03:47:39.222Z,29.19
2023-05-05T03:48:39.191Z,27.24
2023-05-05T03:49:39.207Z,26.39
2023-05-05T03:50:39.235Z,25.89
2023-05-05T03:51:39.362Z,29.03
2023-05-05T03:52:39.502Z,27.83
2023-05-05T03:53:39.376Z,29.73
2023-05-05T03:54:39.452Z,27.72
2023-05-05T03:55:39.533Z,29.17
2023-05-05T03:56:39.567Z,30.02
2023-05-05T03:57:39.672Z,27.97
2023-05-05T03:58:39.671Z,28.76
2023-05-05T03:59:39.798Z,28.46
2023-05-05T04:00:39.800Z,27.50
2023-05-05T04:01:39.870Z,26.80
2023-05-05T04:02:39.980Z,26.93
2023-05-05T04:03:40.027Z,29.59
2023-05-05T04:04:39.987Z,28.31
2023-05-05T04:05:40.071Z,26.43
2023-05-05T04:06:40.149Z,27.14
2023-05-05T04:07:40.286Z,29.85
2023-05-05T04:08:40.229Z,27.33
2023-05-05T04:09:40.309Z,26.85
2023-05-05T04:10:40.340Z,28.08
2023-05-05T04:11:40.454Z,28.57
2023-05-05T04:12:40.485Z,25.84
2023-05-05T04:13:40.550Z,28.88
2023-05-05T04:14:40.611Z,27.30
2023-05-05T04:15:40.749Z,26.53
2023-05-05T04:16:40.744Z,26.34
2023-05-05T04:17:40.852Z,25.71
2023-05-05T04:18:40.852Z,29.28
2023-05-05T04:19:40.885Z,28.49
2023-05-05T04:20:40.973Z,28.08
2023-05-05T04:21:41.038Z,29.87
2023-05-05T04:22:41.073Z,26.52
2023-05-05T04:23:41.156Z,28.44
2023-05-05T04:24:41.241Z,26.88
2023-05-05T04:25:41.273Z,26.20
2023-05-05T04:26:41.314Z,26.89
2023-05-05T04:27:41.428Z,28.78
2023-05-05T04:28:41.448Z,28.84
2023-05-05T04:29:41.538Z,25.00
2023-05-05T04:30:42.530Z,28.73
2023-05-05T04:31:41.689Z,32.01
2023-05-05T04:32:42.089Z,30.65
2023-05-05T04:33:41.768Z,28.49
2023-05-05T04:34:41.812Z,26.18
2023-05-05T04:35:41.894Z,30.12
2023-05-05T04:36:41.935Z,29.43
2023-05-05T04:37:42.022Z,29.86
2023-05-05T04:38:42.118Z,28.18
2023-05-05T04:39:42.106Z,28.00
2023-05-05T04:40:42.217Z,32.29
2023-05-05T04:41:42.226Z,30.34
2023-05-05T04:42:42.342Z,31.06
2023-05-05T04:43:42.400Z,28.72
2023-05-05T04:44:42.455Z,29.46
2023-05-05T04:45:42.510Z,29.60
2023-05-05T04:46:42.623Z,29.70
2023-05-05T04:47:42.660Z,28.92
2023-05-05T04:48:42.668Z,32.24
2023-05-05T04:49:42.736Z,28.54
2023-05-05T04:50:42.773Z,27.25
2023-05-05T04:51:42.848Z,29.02
2023-05-05T04:52:42.941Z,26.44
2023-05-05T04:53:42.975Z,26.48
2023-05-05T04:54:43.036Z,23.17
2023-05-05T04:55:43.098Z,25.00
2023-05-05T04:56:43.149Z,29.90
2023-05-05T04:57:43.140Z,25.11
2023-05-05T04:58:43.174Z,27.70
2023-05-05T04:59:43.174Z,26.77
2023-05-05T05:00:43.180Z,25.00
2023-05-05T05:01:43.222Z,28.33
2023-05-05T05:02:43.280Z,25.00
2023-05-05T05:03:43.274Z,25.00
2023-05-05T05:04:43.240Z,27.98
2023-05-05T05:05:43.266Z,30.07
2023-05-05T05:06:43.253Z,25.00
2023-05-05T05:07:43.278Z,27.18
2023-05-05T05:08:43.275Z,27.37
2023-05-05T05:09:43.300Z,27.10
2023-05-05T05:10:43.325Z,26.92
2023-05-05T05:11:43.308Z,28.99
2023-05-05T05:12:43.340Z,25.00
2023-05-05T05:13:43.330Z,26.93
2023-05-05T05:14:43.312Z,28.85
2023-05-05T05:15:43.359Z,26.05
2023-05-05T05:16:43.364Z,27.42
2023-05-05T05:17:43.368Z,26.52
2023-05-05T05:18:43.542Z,27.45
2023-05-05T05:19:43.360Z,25.67
2023-05-05T05:20:43.369Z,30.97
2023-05-05T05:21:43.324Z,26.54
2023-05-05T05:22:43.355Z,25.58
2023-05-05T05:23:43.375Z,25.00
2023-05-05T05:24:43.378Z,27.73
2023-05-05T05:25:43.381Z,31.05
2023-05-05T05:26:43.372Z,30.59
2023-05-05T05:27:43.361Z,34.63
2023-05-05T05:28:43.390Z,28.02
2023-05-05T05:29:43.400Z,30.67
2023-05-05T05:30:43.414Z,33.40
2023-05-05T05:31:43.449Z,26.92
2023-05-05T05:32:43.435Z,30.59
2023-05-05T05:33:43.565Z,25.86
2023-05-05T05:34:43.412Z,29.78
2023-05-05T05:35:43.421Z,39.98
2023-05-05T05:36:43.387Z,35.47
2023-05-05T05:37:43.389Z,32.30
2023-05-05T05:38:43.530Z,37.83
2023-05-05T05:39:43.799Z,46.46
2023-05-05T05:40:43.444Z,61.92
2023-05-05T05:41:43.501Z,65.87
2023-05-05T05:42:43.578Z,69.72
2023-05-05T05:43:43.579Z,74.69
2023-05-05T05:44:43.640Z,67.06
2023-05-05T05:45:43.627Z,73.56
2023-05-05T05:46:43.671Z,77.52
2023-05-05T05:47:43.694Z,72.47
2023-05-05T05:48:43.714Z,68.66
2023-05-05T05:49:43.750Z,69.97
2023-05-05T05:50:43.772Z,82.99
2023-05-05T05:51:43.829Z,86.46
2023-05-05T05:52:43.853Z,65.44
2023-05-05T05:53:43.946Z,54.19
2023-05-05T05:54:44.020Z,57.65
2023-05-05T05:55:44.064Z,69.40
2023-05-05T05:56:44.125Z,70.20
2023-05-05T05:57:44.148Z,86.05
2023-05-05T05:58:44.612Z,100.88
2023-05-05T05:59:44.241Z,105.95
2023-05-05T06:00:44.322Z,110.12
2023-05-05T06:01:44.409Z,112.08
2023-05-05T06:02:44.472Z,113.84
2023-05-05T06:03:44.680Z,117.40
2023-05-05T06:04:44.545Z,111.72
2023-05-05T06:05:44.549Z,103.23
2023-05-05T06:06:44.615Z,122.27
2023-05-05T06:07:44.662Z,122.74
2023-05-05T06:08:45.055Z,128.20
2023-05-05T06:09:44.708Z,138.04
2023-05-05T06:10:44.738Z,137.95
2023-05-05T06:11:44.779Z,124.93
2023-05-05T06:12:44.814Z,121.15
2023-05-05T06:13:45.032Z,121.79
2023-05-05T06:14:44.901Z,115.76
2023-05-05T06:15:44.956Z,110.27
2023-05-05T06:16:44.961Z,106.64
2023-05-05T06:17:45.043Z,104.07
2023-05-05T06:18:45.061Z,97.62
2023-05-05T06:19:45.082Z,102.77
2023-05-05T06:20:45.114Z,94.94
2023-05-05T06:21:45.126Z,101.40
2023-05-05T06:22:45.203Z,82.26
2023-05-05T06:23:45.230Z,63.69
2023-05-05T06:24:45.278Z,51.43
2023-05-05T06:25:45.346Z,52.27
2023-05-05T06:26:45.403Z,43.62
2023-05-05T06:27:45.481Z,41.77
2023-05-05T06:28:45.517Z,50.60
2023-05-05T06:29:45.587Z,61.10
2023-05-05T06:30:45.649Z,57.70
2023-05-05T06:31:45.753Z,54.76
2023-05-05T06:32:45.785Z,43.73
2023-05-05T06:33:46.085Z,35.45
2023-05-05T06:34:45.808Z,46.84
2023-05-05T06:35:45.823Z,36.70
2023-05-05T06:36:45.874Z,39.09
2023-05-05T06:37:45.898Z,47.37
2023-05-05T06:38:46.112Z,39.91
2023-05-05T06:39:45.923Z,57.64
2023-05-05T06:40:45.956Z,62.09
2023-05-05T06:41:46.035Z,71.83
2023-05-05T06:42:46.110Z,76.76
2023-05-05T06:43:46.145Z,89.45
2023-05-05T06:44:46.172Z,86.19
2023-05-05T06:45:46.281Z,95.90
2023-05-05T06:46:46.312Z,98.45
2023-05-05T06:47:46.355Z,58.23
2023-05-05T06:48:46.434Z,58.16
2023-05-05T06:49:46.478Z,62.77
2023-05-05T06:50:46.524Z,63.73
2023-05-05T06:51:46.624Z,77.53
2023-05-05T06:52:46.647Z,82.98
2023-05-05T06:53:46.734Z,84.37
2023-05-05T06:54:46.711Z,83.06
2023-05-05T06:55:46.765Z,82.14
2023-05-05T06:56:46.857Z,99.59
2023-05-05T06:57:46.873Z,114.66
2023-05-05T06:58:46.957Z,119.68
2023-05-05T06:59:46.977Z,124.24
2023-05-05T07:00:47.046Z,128.39
2023-05-05T07:01:47.050Z,133.06
2023-05-05T07:02:47.127Z,126.32
2023-05-05T07:03:47.620Z,132.75
2023-05-05T07:04:47.139Z,134.38
2023-05-05T07:05:47.174Z,131.29
2023-05-05T07:06:47.213Z,133.76
2023-05-05T07:07:47.243Z,139.35
2023-05-05T07:08:47.268Z,137.58
2023-05-05T07:09:47.430Z,135.31
2023-05-05T07:10:47.361Z,139.90
2023-05-05T07:11:47.361Z,141.88
2023-05-05T07:12:47.391Z,142.64
2023-05-05T07:13:47.582Z,140.32
2023-05-05T07:14:47.396Z,139.48
2023-05-05T07:15:47.430Z,141.07
2023-05-05T07:16:47.521Z,142.42
2023-05-05T07:17:47.568Z,134.27
2023-05-05T07:18:47.523Z,136.78
2023-05-05T07:19:48.131Z,142.76
2023-05-05T07:20:47.508Z,142.14
2023-05-05T07:21:47.529Z,152.98
2023-05-05T07:22:47.549Z,155.84
2023-05-05T07:23:47.602Z,164.88
2023-05-05T07:24:49.145Z,149.13
2023-05-05T07:25:47.651Z,153.17
2023-05-05T07:26:47.575Z,155.42
2023-05-05T07:27:47.587Z,156.68
2023-05-05T07:28:47.616Z,165.71
2023-05-05T07:29:47.595Z,160.31
2023-05-05T07:30:47.606Z,159.92
2023-05-05T07:31:47.670Z,160.55
2023-05-05T07:32:47.719Z,166.43
2023-05-05T07:33:48.112Z,159.96
2023-05-05T07:34:47.639Z,169.19
2023-05-05T07:35:47.634Z,166.40
2023-05-05T07:36:47.646Z,171.55
2023-05-05T07:37:47.658Z,169.77
2023-05-05T07:38:48.114Z,170.95
2023-05-05T07:39:47.608Z,177.88
2023-05-05T07:40:47.644Z,168.68
2023-05-05T07:41:47.752Z,168.90
2023-05-05T07:42:47.629Z,169.97
2023-05-05T07:43:47.648Z,170.96
2023-05-05T07:44:47.647Z,182.57
2023-05-05T07:45:47.685Z,177.67
2023-05-05T07:46:47.634Z,138.40
2023-05-05T07:47:47.664Z,114.52
2023-05-05T07:48:47.629Z,148.13
2023-05-05T07:49:47.700Z,155.86
2023-05-05T07:50:47.659Z,134.11
2023-05-05T07:51:47.647Z,133.05
2023-05-05T07:52:51.851Z,136.75
2023-05-05T07:53:48.697Z,137.29
2023-05-05T07:54:47.674Z,138.90
2023-05-05T07:55:47.632Z,142.02
2023-05-05T07:56:47.627Z,147.64
2023-05-05T07:57:47.770Z,152.16
2023-05-05T07:58:48.107Z,149.55
2023-05-05T07:59:47.636Z,151.31
2023-05-05T08:00:47.648Z,147.39
2023-05-05T08:01:47.612Z,145.24
2023-05-05T08:02:47.660Z,145.62
2023-05-05T08:03:47.676Z,141.48
2023-05-05T08:04:47.679Z,143.00
2023-05-05T08:05:48.618Z,139.69
2023-05-05T08:06:47.606Z,142.15
2023-05-05T08:07:47.586Z,139.82
2023-05-05T08:08:47.571Z,137.12
2023-05-05T08:09:47.569Z,142.88
2023-05-05T08:10:47.570Z,139.86
2023-05-05T08:11:47.536Z,140.20
2023-05-05T08:12:47.572Z,141.57
2023-05-05T08:13:47.600Z,142.94
2023-05-05T08:14:47.523Z,139.80
2023-05-05T08:15:47.627Z,141.73
2023-05-05T08:16:47.515Z,140.38
2023-05-05T08:17:47.668Z,142.53
2023-05-05T08:18:47.489Z,139.81
2023-05-05T08:19:47.508Z,141.15
2023-05-05T08:20:47.460Z,140.99
2023-05-05T08:21:47.458Z,141.47
2023-05-05T08:22:47.487Z,141.75
2023-05-05T08:23:47.532Z,140.53
2023-05-05T08:24:47.612Z,138.33
2023-05-05T08:25:47.472Z,139.23
2023-05-05T08:26:47.476Z,142.08
2023-05-05T08:27:47.504Z,137.16
2023-05-05T08:28:47.502Z,141.20
2023-05-05T08:29:47.731Z,140.44
2023-05-05T08:30:47.520Z,142.43
2023-05-05T08:31:47.537Z,140.74
2023-05-05T08:32:47.570Z,143.81
2023-05-05T08:33:47.497Z,140.71
2023-05-05T08:34:47.600Z,135.98
2023-05-05T08:35:47.514Z,138.06
2023-05-05T08:36:47.503Z,136.99
2023-05-05T08:37:47.568Z,138.91
2023-05-05T08:38:47.576Z,141.46
2023-05-05T08:39:47.525Z,137.65
2023-05-05T08:40:47.488Z,139.15
2023-05-05T08:41:47.512Z,143.67
2023-05-05T08:42:47.551Z,140.75
2023-05-05T08:43:47.555Z,142.92
2023-05-05T08:44:47.576Z,144.08
2023-05-05T08:45:47.576Z,139.57
2023-05-05T08:46:47.612Z,143.44
2023-05-05T08:47:47.578Z,130.59
2023-05-05T08:48:47.594Z,140.47
2023-05-05T08:49:47.584Z,143.87
2023-05-05T08:50:47.620Z,151.05
2023-05-05T08:51:47.598Z,146.20
2023-05-05T08:52:49.855Z,143.30
2023-05-05T08:53:47.575Z,144.74
2023-05-05T08:54:47.609Z,148.69
2023-05-05T08:55:47.589Z,142.60
2023-05-05T08:56:47.588Z,142.20
2023-05-05T08:57:47.598Z,142.43
2023-05-05T08:58:47.614Z,125.69
2023-05-05T08:59:47.550Z,142.57
2023-05-05T09:00:47.610Z,117.79
2023-05-05T09:01:47.713Z,120.18
2023-05-05T09:02:47.721Z,142.27
2023-05-05T09:03:47.542Z,163.05
2023-05-05T09:04:47.530Z,163.51
2023-05-05T09:05:47.557Z,174.14
2023-05-05T09:06:47.523Z,180.26
2023-05-05T09:07:47.627Z,187.61
2023-05-05T09:08:47.504Z,190.95
2023-05-05T09:09:47.512Z,151.21
2023-05-05T09:10:47.523Z,165.60
2023-05-05T09:11:47.498Z,151.73
2023-05-05T09:12:47.534Z,160.80
2023-05-05T09:13:47.439Z,164.52
2023-05-05T09:14:47.658Z,183.13
2023-05-05T09:15:47.480Z,192.16
2023-05-05T09:16:47.453Z,163.11
2023-05-05T09:17:47.601Z,152.53
2023-05-05T09:18:47.433Z,168.41
2023-05-05T09:19:47.445Z,147.95
2023-05-05T09:20:47.395Z,132.66
2023-05-05T09:21:47.415Z,156.77
2023-05-05T09:22:47.459Z,162.92
2023-05-05T09:23:47.415Z,135.11
2023-05-05T09:24:47.370Z,155.87
2023-05-05T09:25:47.371Z,152.36
2023-05-05T09:26:47.384Z,139.98
2023-05-05T09:27:47.402Z,129.74
2023-05-05T09:28:47.397Z,132.15
2023-05-05T09:29:47.407Z,156.26
2023-05-05T09:30:47.394Z,178.58
2023-05-05T09:31:47.362Z,135.77
2023-05-05T09:32:47.413Z,166.95
2023-05-05T09:33:47.395Z,158.00
2023-05-05T09:34:47.644Z,180.74
2023-05-05T09:35:47.358Z,166.08
2023-05-05T09:36:47.373Z,179.26
2023-05-05T09:37:47.333Z,155.56
2023-05-05T09:38:47.331Z,167.53
2023-05-05T09:39:47.629Z,150.91
2023-05-05T09:40:47.431Z,174.20
2023-05-05T09:41:47.504Z,160.38
2023-05-05T09:42:47.534Z,150.98
2023-05-05T09:43:47.556Z,176.44
2023-05-05T09:44:47.662Z,182.05
2023-05-05T09:45:47.676Z,194.71
2023-05-05T09:46:47.829Z,120.92
2023-05-05T09:47:47.921Z,108.57
2023-05-05T09:48:47.901Z,138.09
2023-05-05T09:49:48.217Z,169.35
2023-05-05T09:50:47.924Z,124.50
2023-05-05T09:51:47.990Z,172.00
2023-05-05T09:52:48.173Z,187.86
2023-05-05T09:53:47.994Z,197.20
2023-05-05T09:54:48.050Z,171.86
2023-05-05T09:55:48.073Z,176.28
2023-05-05T09:56:48.120Z,198.26
2023-05-05T09:57:48.110Z,203.72
2023-05-05T09:58:48.212Z,201.22
2023-05-05T09:59:48.181Z,203.88
2023-05-05T10:00:48.198Z,195.49
2023-05-05T10:01:48.241Z,175.30
2023-05-05T10:02:48.557Z,200.65
2023-05-05T10:03:48.271Z,211.75
2023-05-05T10:04:48.334Z,192.50
2023-05-05T10:05:48.432Z,197.03
2023-05-05T10:06:48.308Z,208.27
2023-05-05T10:07:48.322Z,212.38
2023-05-05T10:08:48.334Z,203.85
2023-05-05T10:09:48.361Z,221.37
2023-05-05T10:10:48.410Z,201.36
2023-05-05T10:11:48.391Z,190.13
2023-05-05T10:12:48.404Z,200.30
2023-05-05T10:13:48.384Z,177.65
2023-05-05T10:14:48.667Z,183.78
2023-05-05T10:15:48.517Z,201.39
2023-05-05T10:16:48.470Z,197.76
2023-05-05T10:18:05.091Z,195.68
2023-05-05T10:18:49.469Z,196.35
2023-05-05T10:19:48.625Z,198.06
2023-05-05T10:20:48.445Z,200.02
2023-05-05T10:21:48.487Z,198.49
2023-05-05T10:22:48.457Z,211.47
2023-05-05T10:23:48.421Z,200.65
2023-05-05T10:24:48.370Z,216.52
2023-05-05T10:25:48.415Z,220.13
2023-05-05T10:26:48.405Z,206.20
2023-05-05T10:27:48.392Z,208.38
2023-05-05T10:28:48.394Z,196.14
2023-05-05T10:29:48.679Z,191.26
2023-05-05T10:30:48.362Z,200.42
2023-05-05T10:31:48.363Z,203.89
2023-05-05T10:32:59.392Z,206.54
2023-05-05T10:33:49.421Z,207.05
2023-05-05T10:34:48.663Z,208.65
2023-05-05T10:35:48.340Z,207.76
2023-05-05T10:36:48.334Z,212.12
2023-05-05T10:37:48.420Z,213.70
2023-05-05T10:38:48.319Z,211.78
2023-05-05T10:39:48.656Z,202.29
2023-05-05T10:40:48.318Z,216.39
2023-05-05T10:41:48.280Z,210.69
2023-05-05T10:42:48.304Z,174.01
2023-05-05T10:43:48.302Z,167.24
2023-05-05T10:44:48.656Z,197.60
2023-05-05T10:45:48.488Z,202.48
2023-05-05T10:46:48.277Z,199.56
2023-05-05T10:47:48.309Z,198.61
2023-05-05T10:48:48.297Z,200.10
2023-05-05T10:49:48.647Z,196.43
2023-05-05T10:50:48.295Z,198.29
2023-05-05T10:51:48.248Z,196.86
2023-05-05T10:52:48.249Z,194.11
2023-05-05T10:53:48.340Z,188.50
2023-05-05T10:54:48.272Z,188.20
2023-05-05T10:55:49.179Z,185.44
2023-05-05T10:56:48.233Z,183.01
2023-05-05T10:57:48.189Z,183.71
2023-05-05T10:58:59.819Z,173.38
2023-05-05T10:59:49.661Z,173.65
2023-05-05T11:00:48.209Z,172.56
2023-05-05T11:01:48.181Z,170.72
2023-05-05T11:02:48.177Z,163.63
2023-05-05T11:03:48.192Z,155.65
2023-05-05T11:04:48.137Z,162.31
2023-05-05T11:05:48.201Z,157.67
2023-05-05T11:06:48.130Z,158.63
2023-05-05T11:07:48.186Z,157.64
2023-05-05T11:08:48.124Z,152.22
2023-05-05T11:09:48.176Z,150.09
2023-05-05T11:10:48.088Z,140.28
2023-05-05T11:11:48.072Z,143.40
2023-05-05T11:12:48.160Z,144.99
2023-05-05T11:13:48.167Z,147.94
2023-05-05T11:14:48.673Z,140.28
2023-05-05T11:15:48.250Z,140.52
2023-05-05T11:16:48.476Z,141.61
2023-05-05T11:17:48.517Z,148.12
2023-05-05T11:18:48.426Z,142.15
2023-05-05T11:19:48.710Z,140.60
2023-05-05T11:20:48.512Z,135.25
2023-05-05T11:21:48.575Z,135.52
2023-05-05T11:22:48.615Z,135.25
2023-05-05T11:23:48.680Z,132.28
2023-05-05T11:24:49.162Z,127.80
2023-05-05T11:25:48.777Z,124.10
2023-05-05T11:26:48.803Z,127.40
2023-05-05T11:27:49.034Z,129.40
2023-05-05T11:28:48.918Z,128.99
2023-05-05T11:29:51.497Z,128.31
2023-05-05T11:30:48.945Z,128.76
2023-05-05T11:31:48.927Z,125.06
2023-05-05T11:32:48.973Z,127.52
2023-05-05T11:33:48.894Z,119.21
2023-05-05T11:34:48.936Z,126.64
2023-05-05T11:35:48.911Z,124.31
2023-05-05T11:36:48.900Z,132.97
2023-05-05T11:37:48.889Z,126.88
2023-05-05T11:38:48.893Z,132.92
2023-05-05T11:39:48.916Z,101.93
2023-05-05T11:40:48.894Z,121.20
2023-05-05T11:41:48.918Z,135.98
2023-05-05T11:42:48.839Z,141.56
2023-05-05T11:43:48.863Z,154.46
2023-05-05T11:44:48.878Z,164.32
2023-05-05T11:45:48.951Z,185.34
2023-05-05T11:46:48.856Z,165.94
2023-05-05T11:47:48.857Z,160.12
2023-05-05T11:48:48.795Z,160.88
2023-05-05T11:49:48.809Z,174.29
2023-05-05T11:50:48.832Z,150.30
2023-05-05T11:51:48.899Z,163.08
2023-05-05T11:52:48.795Z,187.07
2023-05-05T11:53:48.774Z,193.27
2023-05-05T11:54:49.211Z,177.49
2023-05-05T11:55:48.796Z,187.90
2023-05-05T11:56:48.795Z,193.75
2023-05-05T11:57:48.838Z,191.09
2023-05-05T11:58:48.737Z,177.76
2023-05-05T11:59:49.684Z,183.02
2023-05-05T12:00:48.738Z,184.84
2023-05-05T12:01:48.730Z,189.25
2023-05-05T12:02:48.775Z,205.24
2023-05-05T12:03:48.892Z,203.75
2023-05-05T12:04:48.735Z,201.80
2023-05-05T12:05:48.736Z,186.29
2023-05-05T12:06:48.742Z,192.31
2023-05-05T12:07:48.686Z,184.15
2023-05-05T12:08:48.716Z,184.90
2023-05-05T12:09:48.702Z,183.71
2023-05-05T12:10:48.687Z,183.45
2023-05-05T12:11:48.686Z,188.48
2023-05-05T12:12:48.692Z,188.39
2023-05-05T12:13:48.719Z,189.60
2023-05-05T12:14:48.689Z,192.92
2023-05-05T12:15:48.700Z,207.21
2023-05-05T12:16:48.678Z,192.45
2023-05-05T12:17:48.669Z,197.69
2023-05-05T12:18:48.661Z,195.05
2023-05-05T12:19:48.654Z,182.55
2023-05-05T12:20:48.626Z,171.38
2023-05-05T12:21:48.645Z,156.69
2023-05-05T12:22:48.589Z,173.30
2023-05-05T12:23:48.607Z,197.13
2023-05-05T12:24:48.766Z,198.47
2023-05-05T12:25:48.667Z,179.10
2023-05-05T12:26:48.628Z,174.29
2023-05-05T12:27:48.569Z,166.51
2023-05-05T12:28:48.607Z,191.41
2023-05-05T12:29:48.601Z,189.89
2023-05-05T12:30:48.700Z,188.21
2023-05-05T12:31:48.658Z,176.47
2023-05-05T12:32:48.590Z,165.91
2023-05-05T12:33:48.574Z,159.38
2023-05-05T12:34:48.566Z,137.02
2023-05-05T12:35:48.572Z,132.61
2023-05-05T12:36:48.672Z,150.10
2023-05-05T12:37:48.560Z,156.18
2023-05-05T12:38:48.572Z,172.95
2023-05-05T12:39:48.574Z,184.55
2023-05-05T12:40:48.530Z,193.02